Portada
METAR-TAF:

METAR-TAF

Aeropuertos :

Aeropuerto de Tánger-Ibn Battuta

Tánger, Marruecos

latitud: 35-44N, longitud: 005-54W, altitud: 19 m

Observación

El informe se hizo hace 15 minutos, a las 07:00 UTC
Viento calma
Temperatura 17°C
Humedad 77%
Presión 1014 hPa
Visibilidad: 8000 m

METAR: GMTT 250700Z 00000KT 8000 NSC 17/13 Q1014 NOSIG

Hora: 07:15 (07:15 UTC)

Pronóstico

El informe se hizo hace 2 horas y 15 minutos, a las 05:00 UTC
Pronóstico válido del 25 a las 06 UTC al 26 a las 12 UTC
Viento 4 kt del noreste
Visibilidad: 8000 m
Evolucionando progresivamente
del 25 a las 10 UTC al 25 a las 14 UTC
Viento 14 kt del este-noreste

TAF: GMTT 250500Z 2506/2612 04004KT 8000 NSC BECMG 2510/2514 07014KT

Observaciones y pronósticos meteorológicos de más de 4000 aeropuertos (mensajes METAR y TAF).

Los puntos amarillos y rojos representan las estaciones disponibles.

Ponga el ratón en el punto deseado para ver el nombre de la estación.

Haga clic para ver las observaciones y los pronósticos meteorológicos.

Para cambiar el mapa : haga clic en los botones verdes con una cruz de color negro para hacer un zoom, en el botón verde con un guión para alejar o en las flechas verdes para mapas adyacentes.


METAR-TAF: